Aeroporto :







RITROVATECI SU...

 
LOGIN :

Iscrizione | Disclaimer

   EN    FR    IT 

 









Sommario :    VFR   VFR Marginale   IFR   IFR Intensivo   IFR Molto Intensivo
Visibilità : 
Base nubi : 
>= 8 km
>= 3000ft
5 / 8 km
1000 / 3000 ft
1500m / 5 km
500 / 1000 ft
800 / 1500m
200 / 500 ft
< 800m
< 200 ft
Simboli :   Temporali  Nebbia  Neve Forte  Precipitazioni Forti  Vento > 20 kt






- Altitudine del aeroporto : 474 ft


KPTD - Potsdam Municipal-Damon field

ULTIMO METAR :
  • 131710Z AUTO 23007KT 10SM CLR M11/M16 A3036 RMK AO2

METARs OBSOLETI :
  • 131655Z AUTO 23008KT 10SM CLR M11/M17 A3035 RMK AO2
  • 131635Z AUTO 22009KT 10SM CLR M12/M17 A3036 RMK AO2
  • 131615Z AUTO 25006KT 10SM FEW022 M12/M17 A3036 RMK AO2
  • 131555Z AUTO 24006KT 10SM SCT022 M12/M17 A3036 RMK AO2
  • 131535Z AUTO VRB06KT 10SM BKN021 M12/M17 A3036 RMK AO2
  • 131515Z AUTO 22007KT 10SM BKN021 M13/M17 A3036 RMK AO2
  • 131455Z AUTO 26008KT 10SM OVC021 M13/M18 A3035 RMK AO2
  • 131435Z AUTO 25008KT 10SM OVC020 M13/M18 A3035 RMK AO2

TAF N/A



MetMap, La meteo Aeronautica in un colpo d'occhio ! - Copyright ORBIFLY Dicembre 2007 - Disclaimer

ORBIFLY MET'MAP TEAM :

Programmazione e sviluppo : Alexandra Zaïnal
Concezione e sviluppo : Baudouin d'Aumeries
Co-Programmazione e sviluppo : Marc-Olivier Méhu
Supporto tecnico e logistico : Manuel Goepfert
Aiuto per la traduzione : Arnaldo La Scala

Contatto : metmap@orbifly.com




FONTI E CREDITI :

   NOAA